sensor_id;sensor_type;location;lat;lon;timestamp;pressure;altitude;pressure_sealevel;temperature;humidity
38038;BME280;23843;51.320;12.340;2024-01-15T00:02:23;98540.16;;;2.88;80.24
38038;BME280;23843;51.320;12.340;2024-01-15T00:04:49;98524.75;;;2.87;80.17
38038;BME280;23843;51.320;12.340;2024-01-15T00:07:14;98524.53;;;2.88;79.87
38038;BME280;23843;51.320;12.340;2024-01-15T00:09:40;98520.09;;;2.87;79.30
38038;BME280;23843;51.320;12.340;2024-01-15T00:12:06;98526.44;;;2.88;79.93
38038;BME280;23843;51.320;12.340;2024-01-15T00:14:33;98517.84;;;2.84;79.95
38038;BME280;23843;51.320;12.340;2024-01-15T00:16:58;98515.94;;;2.85;79.30
38038;BME280;23843;51.320;12.340;2024-01-15T00:19:24;98512.38;;;2.84;79.46
38038;BME280;23843;51.320;12.340;2024-01-15T00:21:49;98506.03;;;2.84;79.89
38038;BME280;23843;51.320;12.340;2024-01-15T00:24:15;98500.56;;;2.84;80.13
38038;BME280;23843;51.320;12.340;2024-01-15T00:26:41;98503.31;;;2.84;79.15
38038;BME280;23843;51.320;12.340;2024-01-15T00:29:07;98509.63;;;2.84;79.12
38038;BME280;23843;51.320;12.340;2024-01-15T00:31:34;98501.63;;;2.83;79.36
38038;BME280;23843;51.320;12.340;2024-01-15T00:33:59;98493.63;;;2.81;79.55
38038;BME280;23843;51.320;12.340;2024-01-15T00:36:25;98491.09;;;2.80;79.43
38038;BME280;23843;51.320;12.340;2024-01-15T00:38:50;98488.38;;;2.80;79.56
38038;BME280;23843;51.320;12.340;2024-01-15T00:41:16;98489.44;;;2.79;80.17
38038;BME280;23843;51.320;12.340;2024-01-15T00:43:41;98483.94;;;2.79;79.36
38038;BME280;23843;51.320;12.340;2024-01-15T00:46:07;98472.97;;;2.79;79.43
38038;BME280;23843;51.320;12.340;2024-01-15T00:48:34;98466.44;;;2.80;79.27
38038;BME280;23843;51.320;12.340;2024-01-15T00:50:59;98473.59;;;2.81;79.62
38038;BME280;23843;51.320;12.340;2024-01-15T00:53:25;98465.38;;;2.81;79.45
38038;BME280;23843;51.320;12.340;2024-01-15T00:55:51;98464.31;;;2.82;80.05
38038;BME280;23843;51.320;12.340;2024-01-15T00:58:16;98470.00;;;2.80;79.52
38038;BME280;23843;51.320;12.340;2024-01-15T01:00:42;98462.41;;;2.82;78.86
38038;BME280;23843;51.320;12.340;2024-01-15T01:03:08;98469.78;;;2.82;79.45
38038;BME280;23843;51.320;12.340;2024-01-15T01:05:35;98466.19;;;2.81;79.49
38038;BME280;23843;51.320;12.340;2024-01-15T01:08:01;98464.31;;;2.82;79.85
38038;BME280;23843;51.320;12.340;2024-01-15T01:10:27;98463.47;;;2.81;79.57
38038;BME280;23843;51.320;12.340;2024-01-15T01:12:52;98475.50;;;2.80;78.75
38038;BME280;23843;51.320;12.340;2024-01-15T01:15:18;98477.16;;;2.81;78.76
38038;BME280;23843;51.320;12.340;2024-01-15T01:17:43;98470.00;;;2.80;78.62
38038;BME280;23843;51.320;12.340;2024-01-15T01:20:09;98482.03;;;2.79;79.49
38038;BME280;23843;51.320;12.340;2024-01-15T01:22:36;98477.88;;;2.77;79.40
38038;BME280;23843;51.320;12.340;2024-01-15T01:25:02;98475.38;;;2.75;78.84
38038;BME280;23843;51.320;12.340;2024-01-15T01:27:27;98468.19;;;2.74;79.22
38038;BME280;23843;51.320;12.340;2024-01-15T01:29:53;98464.41;;;2.75;78.80
38038;BME280;23843;51.320;12.340;2024-01-15T01:32:18;98456.16;;;2.75;78.86
38038;BME280;23843;51.320;12.340;2024-01-15T01:34:44;98457.22;;;2.74;79.06
38038;BME280;23843;51.320;12.340;2024-01-15T01:37:09;98463.56;;;2.74;79.39
38038;BME280;23843;51.320;12.340;2024-01-15T01:39:36;98453.44;;;2.75;80.01
38038;BME280;23843;51.320;12.340;2024-01-15T01:42:02;98445.44;;;2.73;79.72
38038;BME280;23843;51.320;12.340;2024-01-15T01:44:28;98451.75;;;2.74;79.76
38038;BME280;23843;51.320;12.340;2024-01-15T01:46:53;98458.91;;;2.75;79.02
38038;BME280;23843;51.320;12.340;2024-01-15T01:49:19;98449.00;;;2.74;79.26
38038;BME280;23843;51.320;12.340;2024-01-15T01:51:45;98439.94;;;2.73;79.19
38038;BME280;23843;51.320;12.340;2024-01-15T01:54:11;98450.56;;;2.70;78.55
38038;BME280;23843;51.320;12.340;2024-01-15T01:56:38;98445.75;;;2.65;78.94
38038;BME280;23843;51.320;12.340;2024-01-15T01:59:04;98438.47;;;2.59;78.51
38038;BME280;23843;51.320;12.340;2024-01-15T02:01:31;98440.00;;;2.55;78.81
38038;BME280;23843;51.320;12.340;2024-01-15T02:03:57;98440.22;;;2.54;78.29
38038;BME280;23843;51.320;12.340;2024-01-15T02:06:23;98435.19;;;2.51;78.81
38038;BME280;23843;51.320;12.340;2024-01-15T02:08:49;98427.19;;;2.49;78.92
38038;BME280;23843;51.320;12.340;2024-01-15T02:11:15;98430.19;;;2.48;79.13
38038;BME280;23843;51.320;12.340;2024-01-15T02:13:42;98428.97;;;2.44;78.33
38038;BME280;23843;51.320;12.340;2024-01-15T02:16:07;98420.97;;;2.42;79.42
38038;BME280;23843;51.320;12.340;2024-01-15T02:18:40;98414.91;;;2.40;79.57
38038;BME280;23843;51.320;12.340;2024-01-15T02:21:05;98420.63;;;2.39;79.19
38038;BME280;23843;51.320;12.340;2024-01-15T02:23:32;98401.03;;;2.35;78.83
38038;BME280;23843;51.320;12.340;2024-01-15T02:25:58;98407.84;;;2.32;78.61
38038;BME280;23843;51.320;12.340;2024-01-15T02:28:23;98419.03;;;2.31;78.85
38038;BME280;23843;51.320;12.340;2024-01-15T02:30:49;98416.28;;;2.31;78.44
38038;BME280;23843;51.320;12.340;2024-01-15T02:33:14;98410.19;;;2.29;78.38
38038;BME280;23843;51.320;12.340;2024-01-15T02:35:40;98420.53;;;2.27;78.53
38038;BME280;23843;51.320;12.340;2024-01-15T02:38:06;98416.16;;;2.26;79.27
38038;BME280;23843;51.320;12.340;2024-01-15T02:40:33;98426.28;;;2.25;78.87
38038;BME280;23843;51.320;12.340;2024-01-15T02:42:59;98418.88;;;2.26;78.60
38038;BME280;23843;51.320;12.340;2024-01-15T02:45:25;98433.44;;;2.26;78.62
38038;BME280;23843;51.320;12.340;2024-01-15T02:47:50;98423.88;;;2.29;78.82
38038;BME280;23843;51.320;12.340;2024-01-15T02:50:16;98418.19;;;2.30;78.81
38038;BME280;23843;51.320;12.340;2024-01-15T02:52:42;98421.53;;;2.32;79.18
38038;BME280;23843;51.320;12.340;2024-01-15T02:55:08;98426.19;;;2.32;79.25
38038;BME280;23843;51.320;12.340;2024-01-15T02:57:35;98406.38;;;2.30;78.56
38038;BME280;23843;51.320;12.340;2024-01-15T03:00:01;98408.78;;;2.26;79.13
38038;BME280;23843;51.320;12.340;2024-01-15T03:02:26;98413.03;;;2.22;79.15
38038;BME280;23843;51.320;12.340;2024-01-15T03:04:52;98403.34;;;2.20;78.35
38038;BME280;23843;51.320;12.340;2024-01-15T03:07:18;98409.91;;;2.19;78.45
38038;BME280;23843;51.320;12.340;2024-01-15T03:09:43;98416.47;;;2.18;79.04
38038;BME280;23843;51.320;12.340;2024-01-15T03:12:09;98415.84;;;2.16;79.05
38038;BME280;23843;51.320;12.340;2024-01-15T03:14:36;98408.56;;;2.10;79.20
38038;BME280;23843;51.320;12.340;2024-01-15T03:17:01;98426.75;;;2.04;78.44
38038;BME280;23843;51.320;12.340;2024-01-15T03:19:27;98422.16;;;1.98;78.61
38038;BME280;23843;51.320;12.340;2024-01-15T03:21:53;98410.84;;;1.94;79.50
38038;BME280;23843;51.320;12.340;2024-01-15T03:24:18;98423.06;;;1.92;78.69
38038;BME280;23843;51.320;12.340;2024-01-15T03:26:44;98425.44;;;1.88;79.11
38038;BME280;23843;51.320;12.340;2024-01-15T03:29:09;98427.56;;;1.86;79.16
38038;BME280;23843;51.320;12.340;2024-01-15T03:31:36;98420.19;;;1.87;78.73
38038;BME280;23843;51.320;12.340;2024-01-15T03:34:02;98424.19;;;1.84;78.74
38038;BME280;23843;51.320;12.340;2024-01-15T03:36:27;98417.53;;;1.80;79.06
38038;BME280;23843;51.320;12.340;2024-01-15T03:38:53;98422.59;;;1.77;79.30
38038;BME280;23843;51.320;12.340;2024-01-15T03:41:18;98427.94;;;1.72;79.42
38038;BME280;23843;51.320;12.340;2024-01-15T03:43:43;98423.38;;;1.66;78.92
38038;BME280;23843;51.320;12.340;2024-01-15T03:46:09;98427.59;;;1.62;79.15
38038;BME280;23843;51.320;12.340;2024-01-15T03:48:36;98422.81;;;1.57;79.75
38038;BME280;23843;51.320;12.340;2024-01-15T03:51:02;98425.16;;;1.53;79.13
38038;BME280;23843;51.320;12.340;2024-01-15T03:53:27;98437.41;;;1.51;79.83
38038;BME280;23843;51.320;12.340;2024-01-15T03:55:53;98436.56;;;1.50;79.32
38038;BME280;23843;51.320;12.340;2024-01-15T03:58:18;98440.13;;;1.51;79.22
38038;BME280;23843;51.320;12.340;2024-01-15T04:00:44;98438.38;;;1.56;80.10
38038;BME280;23843;51.320;12.340;2024-01-15T04:03:09;98447.16;;;1.65;79.45
38038;BME280;23843;51.320;12.340;2024-01-15T04:05:36;98430.22;;;1.75;79.34
38038;BME280;23843;51.320;12.340;2024-01-15T04:08:03;98443.00;;;1.81;79.13
38038;BME280;23843;51.320;12.340;2024-01-15T04:10:29;98443.16;;;1.86;78.99
38038;BME280;23843;51.320;12.340;2024-01-15T04:12:55;98435.06;;;1.91;79.65
38038;BME280;23843;51.320;12.340;2024-01-15T04:15:20;98435.47;;;1.94;79.40
38038;BME280;23843;51.320;12.340;2024-01-15T04:17:45;98441.09;;;2.00;79.35
38038;BME280;23843;51.320;12.340;2024-01-15T04:20:11;98445.91;;;2.04;79.64
38038;BME280;23843;51.320;12.340;2024-01-15T04:22:38;98440.19;;;2.06;79.63
38038;BME280;23843;51.320;12.340;2024-01-15T04:25:04;98437.22;;;2.07;79.53
38038;BME280;23843;51.320;12.340;2024-01-15T04:27:30;98429.22;;;2.06;79.35
38038;BME280;23843;51.320;12.340;2024-01-15T04:29:55;98436.22;;;2.02;79.20
38038;BME280;23843;51.320;12.340;2024-01-15T04:32:21;98430.00;;;1.94;79.30
38038;BME280;23843;51.320;12.340;2024-01-15T04:34:46;98422.09;;;1.86;79.60
38038;BME280;23843;51.320;12.340;2024-01-15T04:37:13;98434.16;;;1.79;78.92
38038;BME280;23843;51.320;12.340;2024-01-15T04:39:40;98438.66;;;1.73;79.68
38038;BME280;23843;51.320;12.340;2024-01-15T04:42:06;98428.63;;;1.67;79.40
38038;BME280;23843;51.320;12.340;2024-01-15T04:44:31;98430.13;;;1.63;79.33
38038;BME280;23843;51.320;12.340;2024-01-15T04:46:57;98434.38;;;1.59;78.90
38038;BME280;23843;51.320;12.340;2024-01-15T04:49:22;98438.16;;;1.58;79.81
38038;BME280;23843;51.320;12.340;2024-01-15T04:51:48;98436.28;;;1.59;79.76
38038;BME280;23843;51.320;12.340;2024-01-15T04:54:13;98433.31;;;1.60;79.76
38038;BME280;23843;51.320;12.340;2024-01-15T04:56:40;98432.63;;;1.65;79.38
38038;BME280;23843;51.320;12.340;2024-01-15T04:59:05;98424.56;;;1.70;79.99
38038;BME280;23843;51.320;12.340;2024-01-15T05:01:31;98428.91;;;1.77;79.32
38038;BME280;23843;51.320;12.340;2024-01-15T05:03:57;98428.47;;;1.80;78.98
38038;BME280;23843;51.320;12.340;2024-01-15T05:06:22;98422.31;;;1.85;78.98
38038;BME280;23843;51.320;12.340;2024-01-15T05:08:48;98418.91;;;1.89;79.54
38038;BME280;23843;51.320;12.340;2024-01-15T05:11:13;98422.22;;;1.91;78.47
38038;BME280;23843;51.320;12.340;2024-01-15T05:13:40;98419.03;;;1.94;78.46
38038;BME280;23843;51.320;12.340;2024-01-15T05:16:06;98424.03;;;1.98;78.65
38038;BME280;23843;51.320;12.340;2024-01-15T05:18:31;98425.50;;;2.00;79.60
38038;BME280;23843;51.320;12.340;2024-01-15T05:20:57;98420.66;;;2.02;78.45
38038;BME280;23843;51.320;12.340;2024-01-15T05:23:22;98413.84;;;2.05;78.43
38038;BME280;23843;51.320;12.340;2024-01-15T05:25:48;98417.22;;;2.07;79.20
38038;BME280;23843;51.320;12.340;2024-01-15T05:28:13;98420.56;;;2.09;78.19
38038;BME280;23843;51.320;12.340;2024-01-15T05:30:40;98415.94;;;2.09;78.63
38038;BME280;23843;51.320;12.340;2024-01-15T05:33:06;98410.44;;;2.09;78.98
38038;BME280;23843;51.320;12.340;2024-01-15T05:35:31;98393.19;;;2.09;78.63
38038;BME280;23843;51.320;12.340;2024-01-15T05:37:57;98398.25;;;2.05;79.05
38038;BME280;23843;51.320;12.340;2024-01-15T05:40:22;98394.78;;;1.98;79.00
38038;BME280;23843;51.320;12.340;2024-01-15T05:42:48;98398.44;;;1.92;78.51
38038;BME280;23843;51.320;12.340;2024-01-15T05:45:13;98408.53;;;1.91;78.57
38038;BME280;23843;51.320;12.340;2024-01-15T05:47:40;98415.69;;;1.92;79.27
38038;BME280;23843;51.320;12.340;2024-01-15T05:50:06;98406.41;;;1.93;78.75
38038;BME280;23843;51.320;12.340;2024-01-15T05:52:32;98392.28;;;1.97;78.80
38038;BME280;23843;51.320;12.340;2024-01-15T05:54:57;98413.72;;;2.00;78.51
38038;BME280;23843;51.320;12.340;2024-01-15T05:57:23;98403.59;;;2.00;78.45
38038;BME280;23843;51.320;12.340;2024-01-15T05:59:49;98399.56;;;2.03;78.38
38038;BME280;23843;51.320;12.340;2024-01-15T06:02:14;98395.78;;;2.04;78.68
38038;BME280;23843;51.320;12.340;2024-01-15T06:04:41;98391.94;;;2.05;78.98
38038;BME280;23843;51.320;12.340;2024-01-15T06:07:07;98379.34;;;2.04;79.00
38038;BME280;23843;51.320;12.340;2024-01-15T06:09:32;98393.88;;;2.04;78.00
38038;BME280;23843;51.320;12.340;2024-01-15T06:11:58;98392.41;;;2.02;77.95
38038;BME280;23843;51.320;12.340;2024-01-15T06:14:23;98397.06;;;2.01;78.04
38038;BME280;23843;51.320;12.340;2024-01-15T06:16:49;98398.97;;;2.01;78.00
38038;BME280;23843;51.320;12.340;2024-01-15T06:19:14;98405.28;;;2.01;77.93
38038;BME280;23843;51.320;12.340;2024-01-15T06:21:41;98406.13;;;2.02;77.93
38038;BME280;23843;51.320;12.340;2024-01-15T06:24:07;98424.22;;;2.03;78.04
38038;BME280;23843;51.320;12.340;2024-01-15T06:26:32;98420.41;;;2.04;78.21
38038;BME280;23843;51.320;12.340;2024-01-15T06:28:58;98414.69;;;2.05;78.88
38038;BME280;23843;51.320;12.340;2024-01-15T06:31:23;98411.72;;;2.07;78.89
38038;BME280;23843;51.320;12.340;2024-01-15T06:33:49;98411.50;;;2.08;78.89
38038;BME280;23843;51.320;12.340;2024-01-15T06:36:14;98412.13;;;2.10;78.90
38038;BME280;23843;51.320;12.340;2024-01-15T06:38:43;98393.78;;;2.11;78.00
38038;BME280;23843;51.320;12.340;2024-01-15T06:41:08;98406.16;;;2.13;78.46
38038;BME280;23843;51.320;12.340;2024-01-15T06:43:34;98407.84;;;2.14;79.07
38038;BME280;23843;51.320;12.340;2024-01-15T06:46:00;98420.25;;;2.17;78.18
38038;BME280;23843;51.320;12.340;2024-01-15T06:48:25;98410.13;;;2.17;78.51
38038;BME280;23843;51.320;12.340;2024-01-15T06:50:51;98421.94;;;2.18;78.93
38038;BME280;23843;51.320;12.340;2024-01-15T06:53:16;98412.66;;;2.19;78.31
38038;BME280;23843;51.320;12.340;2024-01-15T06:55:43;98420.03;;;2.18;78.63
38038;BME280;23843;51.320;12.340;2024-01-15T06:58:08;98423.84;;;2.17;78.84
38038;BME280;23843;51.320;12.340;2024-01-15T07:00:34;98415.63;;;2.17;78.58
38038;BME280;23843;51.320;12.340;2024-01-15T07:02:59;98409.09;;;2.18;78.17
38038;BME280;23843;51.320;12.340;2024-01-15T07:05:25;98410.13;;;2.17;78.17
38038;BME280;23843;51.320;12.340;2024-01-15T07:07:50;98410.97;;;2.18;78.27
38038;BME280;23843;51.320;12.340;2024-01-15T07:10:16;98407.41;;;2.17;78.64
38038;BME280;23843;51.320;12.340;2024-01-15T07:12:43;98408.47;;;2.16;77.62
38038;BME280;23843;51.320;12.340;2024-01-15T07:15:09;98410.97;;;2.18;78.59
38038;BME280;23843;51.320;12.340;2024-01-15T07:17:35;98409.09;;;2.18;78.41
38038;BME280;23843;51.320;12.340;2024-01-15T07:20:00;98397.28;;;2.18;77.70
38038;BME280;23843;51.320;12.340;2024-01-15T07:22:26;98400.03;;;2.18;78.38
38038;BME280;23843;51.320;12.340;2024-01-15T07:24:51;98412.88;;;2.17;78.43
38038;BME280;23843;51.320;12.340;2024-01-15T07:27:17;98413.47;;;2.19;77.58
38038;BME280;23843;51.320;12.340;2024-01-15T07:29:44;98421.69;;;2.19;77.66
38038;BME280;23843;51.320;12.340;2024-01-15T07:32:09;98420.03;;;2.18;78.33
38038;BME280;23843;51.320;12.340;2024-01-15T07:34:35;98426.09;;;2.20;78.15
38038;BME280;23843;51.320;12.340;2024-01-15T07:37:00;98429.69;;;2.21;78.56
38038;BME280;23843;51.320;12.340;2024-01-15T07:39:26;98417.03;;;2.20;77.72
38038;BME280;23843;51.320;12.340;2024-01-15T07:41:52;98422.28;;;2.21;77.79
38038;BME280;23843;51.320;12.340;2024-01-15T07:44:17;98419.56;;;2.21;77.61
38038;BME280;23843;51.320;12.340;2024-01-15T07:46:45;98417.66;;;2.22;77.49
38038;BME280;23843;51.320;12.340;2024-01-15T07:49:11;98413.84;;;2.23;77.61
38038;BME280;23843;51.320;12.340;2024-01-15T07:51:36;98403.50;;;2.25;77.32
38038;BME280;23843;51.320;12.340;2024-01-15T07:54:02;98416.16;;;2.26;77.15
38038;BME280;23843;51.320;12.340;2024-01-15T07:56:27;98413.41;;;2.26;77.92
38038;BME280;23843;51.320;12.340;2024-01-15T07:58:53;98416.81;;;2.21;78.19
38038;BME280;23843;51.320;12.340;2024-01-15T08:01:18;98433.34;;;2.15;78.22
38038;BME280;23843;51.320;12.340;2024-01-15T08:03:45;98422.03;;;2.11;77.08
38038;BME280;23843;51.320;12.340;2024-01-15T08:06:11;98423.44;;;2.14;77.55
38038;BME280;23843;51.320;12.340;2024-01-15T08:08:37;98426.94;;;2.21;78.41
38038;BME280;23843;51.320;12.340;2024-01-15T08:11:02;98420.53;;;2.27;77.56
38038;BME280;23843;51.320;12.340;2024-01-15T08:13:28;98420.00;;;2.37;77.80
38038;BME280;23843;51.320;12.340;2024-01-15T08:15:54;98418.41;;;2.47;78.54
38038;BME280;23843;51.320;12.340;2024-01-15T08:18:19;98420.56;;;2.57;77.60
38038;BME280;23843;51.320;12.340;2024-01-15T08:20:46;98417.59;;;2.58;77.68
38038;BME280;23843;51.320;12.340;2024-01-15T08:23:12;98431.31;;;2.58;77.69
38038;BME280;23843;51.320;12.340;2024-01-15T08:25:37;98425.19;;;2.56;77.52
38038;BME280;23843;51.320;12.340;2024-01-15T08:28:03;98421.41;;;2.57;77.18
38038;BME280;23843;51.320;12.340;2024-01-15T08:30:29;98425.81;;;2.58;76.68
38038;BME280;23843;51.320;12.340;2024-01-15T08:32:55;98426.25;;;2.73;77.33
38038;BME280;23843;51.320;12.340;2024-01-15T08:35:20;98412.56;;;3.27;78.27
38038;BME280;23843;51.320;12.340;2024-01-15T08:37:47;98411.50;;;3.63;77.48
38038;BME280;23843;51.320;12.340;2024-01-15T08:40:12;98416.13;;;3.97;76.40
38038;BME280;23843;51.320;12.340;2024-01-15T08:42:38;98407.72;;;4.27;76.70
38038;BME280;23843;51.320;12.340;2024-01-15T08:45:04;98414.22;;;4.49;75.81
38038;BME280;23843;51.320;12.340;2024-01-15T08:47:30;98405.72;;;4.51;75.24
38038;BME280;23843;51.320;12.340;2024-01-15T08:49:55;98413.97;;;4.51;74.96
38038;BME280;23843;51.320;12.340;2024-01-15T08:52:21;98405.38;;;4.47;74.99
38038;BME280;23843;51.320;12.340;2024-01-15T08:54:47;98411.00;;;4.41;74.63
38038;BME280;23843;51.320;12.340;2024-01-15T08:57:13;98422.81;;;4.53;75.50
38038;BME280;23843;51.320;12.340;2024-01-15T08:59:38;98397.13;;;4.76;75.33
38038;BME280;23843;51.320;12.340;2024-01-15T09:02:04;98416.25;;;4.99;74.62
38038;BME280;23843;51.320;12.340;2024-01-15T09:04:30;98421.72;;;5.27;74.89
38038;BME280;23843;51.320;12.340;2024-01-15T09:06:56;98411.63;;;5.66;74.29
38038;BME280;23843;51.320;12.340;2024-01-15T09:09:21;98410.78;;;5.82;73.89
38038;BME280;23843;51.320;12.340;2024-01-15T09:11:48;98409.63;;;5.95;73.85
38038;BME280;23843;51.320;12.340;2024-01-15T09:14:13;98407.78;;;5.84;73.34
38038;BME280;23843;51.320;12.340;2024-01-15T09:16:39;98409.28;;;5.58;73.19
38038;BME280;23843;51.320;12.340;2024-01-15T09:19:04;98407.22;;;5.32;72.88
38038;BME280;23843;51.320;12.340;2024-01-15T09:21:33;98412.03;;;5.08;73.78
38038;BME280;23843;51.320;12.340;2024-01-15T09:23:59;98424.34;;;4.89;73.55
38038;BME280;23843;51.320;12.340;2024-01-15T09:26:24;98417.47;;;4.75;74.02
38038;BME280;23843;51.320;12.340;2024-01-15T09:28:51;98421.94;;;4.64;74.50
38038;BME280;23843;51.320;12.340;2024-01-15T09:31:17;98421.47;;;4.55;75.05
38038;BME280;23843;51.320;12.340;2024-01-15T09:33:42;98423.28;;;4.50;74.76
38038;BME280;23843;51.320;12.340;2024-01-15T09:36:08;98426.78;;;4.45;74.87
38038;BME280;23843;51.320;12.340;2024-01-15T09:38:34;98440.41;;;4.40;74.74
38038;BME280;23843;51.320;12.340;2024-01-15T09:40:59;98436.50;;;4.36;74.98
38038;BME280;23843;51.320;12.340;2024-01-15T09:43:25;98431.81;;;4.37;75.17
38038;BME280;23843;51.320;12.340;2024-01-15T09:45:52;98433.50;;;4.38;74.72
38038;BME280;23843;51.320;12.340;2024-01-15T09:48:18;98434.44;;;4.43;74.45
38038;BME280;23843;51.320;12.340;2024-01-15T09:50:44;98433.38;;;4.44;74.75
38038;BME280;23843;51.320;12.340;2024-01-15T09:53:11;98433.59;;;4.43;74.47
38038;BME280;23843;51.320;12.340;2024-01-15T09:55:37;98431.94;;;4.42;74.36
38038;BME280;23843;51.320;12.340;2024-01-15T09:58:02;98435.50;;;4.42;74.43
38038;BME280;23843;51.320;12.340;2024-01-15T10:00:29;98434.69;;;4.42;74.31
38038;BME280;23843;51.320;12.340;2024-01-15T10:02:56;98429.41;;;4.40;74.18
38038;BME280;23843;51.320;12.340;2024-01-15T10:05:21;98431.59;;;4.38;74.47
38038;BME280;23843;51.320;12.340;2024-01-15T10:07:47;98428.00;;;4.38;74.09
38038;BME280;23843;51.320;12.340;2024-01-15T10:10:13;98436.81;;;4.40;74.98
38038;BME280;23843;51.320;12.340;2024-01-15T10:12:39;98424.03;;;4.45;74.50
38038;BME280;23843;51.320;12.340;2024-01-15T10:15:05;98427.13;;;4.49;74.91
38038;BME280;23843;51.320;12.340;2024-01-15T10:17:31;98432.97;;;4.52;74.38
38038;BME280;23843;51.320;12.340;2024-01-15T10:19:57;98431.16;;;4.58;74.91
38038;BME280;23843;51.320;12.340;2024-01-15T10:22:23;98427.06;;;4.60;74.66
38038;BME280;23843;51.320;12.340;2024-01-15T10:24:49;98427.81;;;4.56;74.59
38038;BME280;23843;51.320;12.340;2024-01-15T10:27:15;98413.97;;;4.51;74.26
38038;BME280;23843;51.320;12.340;2024-01-15T10:29:41;98418.28;;;4.47;74.43
38038;BME280;23843;51.320;12.340;2024-01-15T10:32:07;98405.03;;;4.44;74.47
38038;BME280;23843;51.320;12.340;2024-01-15T10:34:33;98411.25;;;4.39;74.44
38038;BME280;23843;51.320;12.340;2024-01-15T10:37:01;98398.84;;;4.37;74.80
38038;BME280;23843;51.320;12.340;2024-01-15T10:39:27;98400.53;;;4.38;74.67
38038;BME280;23843;51.320;12.340;2024-01-15T10:41:52;98407.66;;;4.39;74.48
38038;BME280;23843;51.320;12.340;2024-01-15T10:44:18;98398.84;;;4.37;74.16
38038;BME280;23843;51.320;12.340;2024-01-15T10:46:43;98401.00;;;4.35;74.68
38038;BME280;23843;51.320;12.340;2024-01-15T10:49:10;98401.97;;;4.28;74.73
38038;BME280;23843;51.320;12.340;2024-01-15T10:51:36;98402.13;;;4.22;74.43
38038;BME280;23843;51.320;12.340;2024-01-15T10:54:04;98401.97;;;4.17;74.71
38038;BME280;23843;51.320;12.340;2024-01-15T10:56:31;98404.41;;;4.13;75.05
38038;BME280;23843;51.320;12.340;2024-01-15T10:58:57;98404.28;;;4.08;74.60
38038;BME280;23843;51.320;12.340;2024-01-15T11:01:23;98399.28;;;4.05;75.01
38038;BME280;23843;51.320;12.340;2024-01-15T11:03:49;98400.34;;;4.04;74.33
38038;BME280;23843;51.320;12.340;2024-01-15T11:06:18;98399.28;;;4.05;74.71
38038;BME280;23843;51.320;12.340;2024-01-15T11:08:44;98396.28;;;4.07;74.60
38038;BME280;23843;51.320;12.340;2024-01-15T11:11:11;98404.53;;;4.07;75.24
38038;BME280;23843;51.320;12.340;2024-01-15T11:13:40;98391.41;;;4.09;74.88
38038;BME280;23843;51.320;12.340;2024-01-15T11:16:06;98387.81;;;4.08;74.56
38038;BME280;23843;51.320;12.340;2024-01-15T11:18:35;98386.47;;;4.11;74.70
38038;BME280;23843;51.320;12.340;2024-01-15T11:21:20;98381.34;;;4.14;75.03
38038;BME280;23843;51.320;12.340;2024-01-15T11:23:47;98390.53;;;4.20;74.95
38038;BME280;23843;51.320;12.340;2024-01-15T11:26:30;98389.22;;;4.22;74.89
38038;BME280;23843;51.320;12.340;2024-01-15T11:28:56;98390.88;;;4.23;74.64
38038;BME280;23843;51.320;12.340;2024-01-15T11:31:26;98392.53;;;4.24;74.67
38038;BME280;23843;51.320;12.340;2024-01-15T11:33:52;98391.69;;;4.24;74.33
38038;BME280;23843;51.320;12.340;2024-01-15T11:36:17;98392.78;;;4.23;74.49
38038;BME280;23843;51.320;12.340;2024-01-15T11:38:43;98394.72;;;4.22;74.50
38038;BME280;23843;51.320;12.340;2024-01-15T11:41:13;98390.28;;;4.21;75.01
38038;BME280;23843;51.320;12.340;2024-01-15T11:43:40;98386.94;;;4.19;74.71
38038;BME280;23843;51.320;12.340;2024-01-15T11:46:11;98385.84;;;4.20;75.02
38038;BME280;23843;51.320;12.340;2024-01-15T11:48:42;98380.97;;;4.22;74.19
38038;BME280;23843;51.320;12.340;2024-01-15T11:51:10;98386.19;;;4.24;74.79
38038;BME280;23843;51.320;12.340;2024-01-15T11:53:43;98383.81;;;4.27;75.14
38038;BME280;23843;51.320;12.340;2024-01-15T11:56:15;98384.41;;;4.29;74.78
38038;BME280;23843;51.320;12.340;2024-01-15T11:58:42;98394.66;;;4.34;74.45
38038;BME280;23843;51.320;12.340;2024-01-15T12:01:08;98386.41;;;4.34;74.80
38038;BME280;23843;51.320;12.340;2024-01-15T12:03:34;98384.75;;;4.33;74.62
38038;BME280;23843;51.320;12.340;2024-01-15T12:06:00;98390.47;;;4.31;74.64
38038;BME280;23843;51.320;12.340;2024-01-15T12:08:25;98392.38;;;4.31;74.13
38038;BME280;23843;51.320;12.340;2024-01-15T12:10:51;98390.38;;;4.26;74.39
38038;BME280;23843;51.320;12.340;2024-01-15T12:13:16;98374.72;;;4.27;74.47
38038;BME280;23843;51.320;12.340;2024-01-15T12:15:45;98370.91;;;4.28;74.65
38038;BME280;23843;51.320;12.340;2024-01-15T12:18:12;98371.22;;;4.31;74.66
38038;BME280;23843;51.320;12.340;2024-01-15T12:20:39;98371.34;;;4.37;74.61
38038;BME280;23843;51.320;12.340;2024-01-15T12:23:05;98381.38;;;4.43;74.44
38038;BME280;23843;51.320;12.340;2024-01-15T12:25:31;98379.78;;;4.47;74.23
38038;BME280;23843;51.320;12.340;2024-01-15T12:27:58;98366.63;;;4.49;74.22
38038;BME280;23843;51.320;12.340;2024-01-15T12:30:25;98373.22;;;4.48;74.39
38038;BME280;23843;51.320;12.340;2024-01-15T12:32:52;98373.72;;;4.45;74.02
38038;BME280;23843;51.320;12.340;2024-01-15T12:35:18;98372.03;;;4.44;74.44
38038;BME280;23843;51.320;12.340;2024-01-15T12:37:43;98368.47;;;4.43;73.97
38038;BME280;23843;51.320;12.340;2024-01-15T12:40:10;98366.53;;;4.44;74.65
38038;BME280;23843;51.320;12.340;2024-01-15T12:42:36;98355.03;;;4.47;74.87
38038;BME280;23843;51.320;12.340;2024-01-15T12:45:02;98363.06;;;4.48;74.35
38038;BME280;23843;51.320;12.340;2024-01-15T12:47:27;98353.97;;;4.48;74.32
38038;BME280;23843;51.320;12.340;2024-01-15T12:49:55;98350.16;;;4.49;73.89
38038;BME280;23843;51.320;12.340;2024-01-15T12:52:20;98357.31;;;4.50;74.29
38038;BME280;23843;51.320;12.340;2024-01-15T12:54:46;98362.81;;;4.50;74.43